sensor_id;sensor_type;location;lat;lon;timestamp;temperature;humidity
12268;DHT22;6196;48.398;11.736;2023-06-10T00:02:06;16.70;99.90
12268;DHT22;6196;48.398;11.736;2023-06-10T00:04:33;16.70;99.90
12268;DHT22;6196;48.398;11.736;2023-06-10T00:07:03;16.60;99.90
12268;DHT22;6196;48.398;11.736;2023-06-10T00:09:38;16.60;99.90
12268;DHT22;6196;48.398;11.736;2023-06-10T00:12:05;16.50;99.90
12268;DHT22;6196;48.398;11.736;2023-06-10T00:14:37;16.50;99.90
12268;DHT22;6196;48.398;11.736;2023-06-10T00:17:05;16.40;99.90
12268;DHT22;6196;48.398;11.736;2023-06-10T00:19:38;16.40;99.90
12268;DHT22;6196;48.398;11.736;2023-06-10T00:22:08;16.40;99.90
12268;DHT22;6196;48.398;11.736;2023-06-10T00:24:37;16.30;99.90
12268;DHT22;6196;48.398;11.736;2023-06-10T00:27:06;16.40;99.90
12268;DHT22;6196;48.398;11.736;2023-06-10T00:29:33;16.40;99.90
12268;DHT22;6196;48.398;11.736;2023-06-10T00:32:00;16.30;99.90
12268;DHT22;6196;48.398;11.736;2023-06-10T00:34:28;16.30;99.90
12268;DHT22;6196;48.398;11.736;2023-06-10T00:36:55;16.30;99.90
12268;DHT22;6196;48.398;11.736;2023-06-10T00:39:22;16.30;99.90
12268;DHT22;6196;48.398;11.736;2023-06-10T00:41:49;16.30;99.90
12268;DHT22;6196;48.398;11.736;2023-06-10T00:44:16;16.30;99.90
12268;DHT22;6196;48.398;11.736;2023-06-10T00:46:43;16.30;99.90
12268;DHT22;6196;48.398;11.736;2023-06-10T00:49:11;16.20;99.90
12268;DHT22;6196;48.398;11.736;2023-06-10T00:51:38;16.30;99.90
12268;DHT22;6196;48.398;11.736;2023-06-10T00:54:07;16.30;99.90
12268;DHT22;6196;48.398;11.736;2023-06-10T00:56:35;16.20;99.90
12268;DHT22;6196;48.398;11.736;2023-06-10T00:59:02;16.20;99.90
12268;DHT22;6196;48.398;11.736;2023-06-10T01:01:29;16.20;99.90
12268;DHT22;6196;48.398;11.736;2023-06-10T01:03:56;16.20;99.90
12268;DHT22;6196;48.398;11.736;2023-06-10T01:14:59;16.10;99.90
12268;DHT22;6196;48.398;11.736;2023-06-10T01:17:28;16.10;99.90
12268;DHT22;6196;48.398;11.736;2023-06-10T01:19:58;15.90;99.90
12268;DHT22;6196;48.398;11.736;2023-06-10T01:22:26;16.00;99.90
12268;DHT22;6196;48.398;11.736;2023-06-10T01:24:59;16.00;99.90
12268;DHT22;6196;48.398;11.736;2023-06-10T01:27:33;15.80;99.90
12268;DHT22;6196;48.398;11.736;2023-06-10T01:30:11;15.90;99.90
12268;DHT22;6196;48.398;11.736;2023-06-10T01:32:48;15.80;99.90
12268;DHT22;6196;48.398;11.736;2023-06-10T01:35:17;15.80;99.90
12268;DHT22;6196;48.398;11.736;2023-06-10T01:37:48;15.80;99.90
12268;DHT22;6196;48.398;11.736;2023-06-10T01:40:17;15.80;99.90
12268;DHT22;6196;48.398;11.736;2023-06-10T01:42:44;15.80;99.90
12268;DHT22;6196;48.398;11.736;2023-06-10T01:45:11;15.80;99.90
12268;DHT22;6196;48.398;11.736;2023-06-10T01:47:37;15.80;99.90
12268;DHT22;6196;48.398;11.736;2023-06-10T01:50:05;15.70;99.90
12268;DHT22;6196;48.398;11.736;2023-06-10T01:52:32;15.70;99.90
12268;DHT22;6196;48.398;11.736;2023-06-10T01:54:59;15.80;99.90
12268;DHT22;6196;48.398;11.736;2023-06-10T01:57:26;15.70;99.90
12268;DHT22;6196;48.398;11.736;2023-06-10T01:59:53;15.70;99.90
12268;DHT22;6196;48.398;11.736;2023-06-10T02:02:20;15.60;99.90
12268;DHT22;6196;48.398;11.736;2023-06-10T02:04:48;15.60;99.90
12268;DHT22;6196;48.398;11.736;2023-06-10T02:07:15;15.60;99.90
12268;DHT22;6196;48.398;11.736;2023-06-10T02:09:42;15.60;99.90
12268;DHT22;6196;48.398;11.736;2023-06-10T02:12:09;15.50;99.90
12268;DHT22;6196;48.398;11.736;2023-06-10T02:14:37;15.40;99.90
12268;DHT22;6196;48.398;11.736;2023-06-10T02:17:04;15.40;99.90
12268;DHT22;6196;48.398;11.736;2023-06-10T02:19:31;15.40;99.90
12268;DHT22;6196;48.398;11.736;2023-06-10T02:21:58;15.30;99.90
12268;DHT22;6196;48.398;11.736;2023-06-10T02:24:25;15.30;99.90
12268;DHT22;6196;48.398;11.736;2023-06-10T02:26:52;15.30;99.90
12268;DHT22;6196;48.398;11.736;2023-06-10T02:29:19;15.30;99.90
12268;DHT22;6196;48.398;11.736;2023-06-10T02:31:46;15.30;99.90
12268;DHT22;6196;48.398;11.736;2023-06-10T02:34:14;15.30;99.90
12268;DHT22;6196;48.398;11.736;2023-06-10T02:36:41;15.30;99.90
12268;DHT22;6196;48.398;11.736;2023-06-10T02:39:08;15.30;99.90
12268;DHT22;6196;48.398;11.736;2023-06-10T02:41:35;15.30;99.90
12268;DHT22;6196;48.398;11.736;2023-06-10T02:44:02;15.30;99.90
12268;DHT22;6196;48.398;11.736;2023-06-10T02:46:29;15.30;99.90
12268;DHT22;6196;48.398;11.736;2023-06-10T02:48:56;15.30;99.90
12268;DHT22;6196;48.398;11.736;2023-06-10T02:51:23;15.20;99.90
12268;DHT22;6196;48.398;11.736;2023-06-10T02:53:50;15.20;99.90
12268;DHT22;6196;48.398;11.736;2023-06-10T02:56:18;15.20;99.90
12268;DHT22;6196;48.398;11.736;2023-06-10T02:58:45;15.10;99.90
12268;DHT22;6196;48.398;11.736;2023-06-10T03:01:12;15.10;99.90
12268;DHT22;6196;48.398;11.736;2023-06-10T03:03:39;15.10;99.90
12268;DHT22;6196;48.398;11.736;2023-06-10T03:06:13;15.10;99.90
12268;DHT22;6196;48.398;11.736;2023-06-10T03:08:40;15.10;99.90
12268;DHT22;6196;48.398;11.736;2023-06-10T03:11:07;15.10;99.90
12268;DHT22;6196;48.398;11.736;2023-06-10T03:13:34;15.10;99.90
12268;DHT22;6196;48.398;11.736;2023-06-10T03:16:01;15.10;99.90
12268;DHT22;6196;48.398;11.736;2023-06-10T03:18:30;15.10;99.90
12268;DHT22;6196;48.398;11.736;2023-06-10T03:20:57;15.10;99.90
12268;DHT22;6196;48.398;11.736;2023-06-10T03:23:24;15.10;99.90
12268;DHT22;6196;48.398;11.736;2023-06-10T03:25:51;15.00;99.90
12268;DHT22;6196;48.398;11.736;2023-06-10T03:28:18;15.00;99.90
12268;DHT22;6196;48.398;11.736;2023-06-10T03:30:45;15.10;99.90
12268;DHT22;6196;48.398;11.736;2023-06-10T03:33:12;15.00;99.90
12268;DHT22;6196;48.398;11.736;2023-06-10T03:35:39;15.10;99.90
12268;DHT22;6196;48.398;11.736;2023-06-10T03:38:06;15.00;99.90
12268;DHT22;6196;48.398;11.736;2023-06-10T03:40:33;15.00;99.90
12268;DHT22;6196;48.398;11.736;2023-06-10T03:43:00;15.00;99.90
12268;DHT22;6196;48.398;11.736;2023-06-10T03:45:27;15.00;99.90
12268;DHT22;6196;48.398;11.736;2023-06-10T03:47:56;15.00;99.90
12268;DHT22;6196;48.398;11.736;2023-06-10T03:50:23;15.00;99.90
12268;DHT22;6196;48.398;11.736;2023-06-10T03:52:51;15.10;99.90
12268;DHT22;6196;48.398;11.736;2023-06-10T03:55:18;15.10;99.90
12268;DHT22;6196;48.398;11.736;2023-06-10T03:57:49;15.10;99.90
12268;DHT22;6196;48.398;11.736;2023-06-10T04:00:16;15.10;99.90
12268;DHT22;6196;48.398;11.736;2023-06-10T04:02:44;15.10;99.90
12268;DHT22;6196;48.398;11.736;2023-06-10T04:05:16;15.20;99.90
12268;DHT22;6196;48.398;11.736;2023-06-10T04:07:44;15.20;99.90
12268;DHT22;6196;48.398;11.736;2023-06-10T04:10:11;15.20;99.90
12268;DHT22;6196;48.398;11.736;2023-06-10T04:12:38;15.20;99.90
12268;DHT22;6196;48.398;11.736;2023-06-10T04:15:06;15.20;99.90
12268;DHT22;6196;48.398;11.736;2023-06-10T04:17:34;15.30;99.90
12268;DHT22;6196;48.398;11.736;2023-06-10T04:20:02;15.40;99.90
12268;DHT22;6196;48.398;11.736;2023-06-10T04:22:30;15.50;99.90
12268;DHT22;6196;48.398;11.736;2023-06-10T04:24:57;15.50;99.90
12268;DHT22;6196;48.398;11.736;2023-06-10T04:27:25;15.60;99.90
12268;DHT22;6196;48.398;11.736;2023-06-10T04:29:52;15.70;99.90
12268;DHT22;6196;48.398;11.736;2023-06-10T04:32:19;15.70;99.90
12268;DHT22;6196;48.398;11.736;2023-06-10T04:34:46;15.80;99.90
12268;DHT22;6196;48.398;11.736;2023-06-10T04:37:13;15.90;99.90
12268;DHT22;6196;48.398;11.736;2023-06-10T04:39:41;16.00;99.90
12268;DHT22;6196;48.398;11.736;2023-06-10T04:42:08;16.00;99.90
12268;DHT22;6196;48.398;11.736;2023-06-10T04:44:35;16.10;99.90
12268;DHT22;6196;48.398;11.736;2023-06-10T04:47:02;16.20;99.90
12268;DHT22;6196;48.398;11.736;2023-06-10T04:49:29;16.20;99.90
12268;DHT22;6196;48.398;11.736;2023-06-10T04:51:56;16.30;99.90
12268;DHT22;6196;48.398;11.736;2023-06-10T04:54:23;16.40;99.90
12268;DHT22;6196;48.398;11.736;2023-06-10T04:56:50;16.40;99.90
12268;DHT22;6196;48.398;11.736;2023-06-10T04:59:17;16.50;99.90
12268;DHT22;6196;48.398;11.736;2023-06-10T05:01:44;16.60;99.90
12268;DHT22;6196;48.398;11.736;2023-06-10T05:04:11;16.70;99.90
12268;DHT22;6196;48.398;11.736;2023-06-10T05:06:37;16.70;99.90
12268;DHT22;6196;48.398;11.736;2023-06-10T05:09:04;16.90;99.90
12268;DHT22;6196;48.398;11.736;2023-06-10T05:11:32;17.10;99.90
12268;DHT22;6196;48.398;11.736;2023-06-10T05:13:58;17.20;99.90
12268;DHT22;6196;48.398;11.736;2023-06-10T05:16:26;17.20;99.90
12268;DHT22;6196;48.398;11.736;2023-06-10T05:18:52;17.30;99.90
12268;DHT22;6196;48.398;11.736;2023-06-10T05:21:19;17.50;99.90
12268;DHT22;6196;48.398;11.736;2023-06-10T05:23:47;17.50;99.90
12268;DHT22;6196;48.398;11.736;2023-06-10T05:26:14;17.50;99.90
12268;DHT22;6196;48.398;11.736;2023-06-10T05:28:41;17.50;99.90
12268;DHT22;6196;48.398;11.736;2023-06-10T05:31:09;17.60;99.90
12268;DHT22;6196;48.398;11.736;2023-06-10T05:33:36;17.50;99.90
12268;DHT22;6196;48.398;11.736;2023-06-10T05:36:03;17.50;99.90
12268;DHT22;6196;48.398;11.736;2023-06-10T05:38:30;17.70;99.90
12268;DHT22;6196;48.398;11.736;2023-06-10T05:40:57;17.70;99.90
12268;DHT22;6196;48.398;11.736;2023-06-10T05:43:25;17.80;99.90
12268;DHT22;6196;48.398;11.736;2023-06-10T05:45:52;17.70;99.90
12268;DHT22;6196;48.398;11.736;2023-06-10T05:48:19;17.70;99.90
12268;DHT22;6196;48.398;11.736;2023-06-10T05:50:46;17.80;99.90
12268;DHT22;6196;48.398;11.736;2023-06-10T05:53:15;17.90;99.90
12268;DHT22;6196;48.398;11.736;2023-06-10T05:55:45;18.10;99.90
12268;DHT22;6196;48.398;11.736;2023-06-10T05:58:13;18.10;99.90
12268;DHT22;6196;48.398;11.736;2023-06-10T06:00:41;18.20;99.90
12268;DHT22;6196;48.398;11.736;2023-06-10T06:03:08;18.50;99.90
12268;DHT22;6196;48.398;11.736;2023-06-10T06:05:36;18.70;99.90
12268;DHT22;6196;48.398;11.736;2023-06-10T06:08:05;19.10;99.90
12268;DHT22;6196;48.398;11.736;2023-06-10T06:10:33;19.50;99.90
12268;DHT22;6196;48.398;11.736;2023-06-10T06:13:00;19.70;99.90
12268;DHT22;6196;48.398;11.736;2023-06-10T06:15:28;19.80;99.90
12268;DHT22;6196;48.398;11.736;2023-06-10T06:17:55;20.10;99.90
12268;DHT22;6196;48.398;11.736;2023-06-10T06:20:23;20.30;99.90
12268;DHT22;6196;48.398;11.736;2023-06-10T06:22:50;20.50;99.90
12268;DHT22;6196;48.398;11.736;2023-06-10T06:25:17;20.70;99.90
12268;DHT22;6196;48.398;11.736;2023-06-10T06:27:44;20.90;99.90
12268;DHT22;6196;48.398;11.736;2023-06-10T06:30:12;21.00;99.90
12268;DHT22;6196;48.398;11.736;2023-06-10T06:32:39;21.10;99.90
12268;DHT22;6196;48.398;11.736;2023-06-10T06:35:06;21.10;99.90
12268;DHT22;6196;48.398;11.736;2023-06-10T06:37:35;21.30;99.90
12268;DHT22;6196;48.398;11.736;2023-06-10T06:40:03;21.30;99.90
12268;DHT22;6196;48.398;11.736;2023-06-10T06:42:30;21.30;99.90
12268;DHT22;6196;48.398;11.736;2023-06-10T06:44:57;21.50;99.90
12268;DHT22;6196;48.398;11.736;2023-06-10T06:47:24;21.60;99.90
12268;DHT22;6196;48.398;11.736;2023-06-10T06:49:52;21.80;99.90
12268;DHT22;6196;48.398;11.736;2023-06-10T06:52:19;21.90;99.90
12268;DHT22;6196;48.398;11.736;2023-06-10T06:54:46;22.00;99.90
12268;DHT22;6196;48.398;11.736;2023-06-10T06:57:12;22.10;99.90
12268;DHT22;6196;48.398;11.736;2023-06-10T06:59:39;22.30;99.90
12268;DHT22;6196;48.398;11.736;2023-06-10T07:02:06;22.40;99.90
12268;DHT22;6196;48.398;11.736;2023-06-10T07:04:33;22.70;99.90
12268;DHT22;6196;48.398;11.736;2023-06-10T07:07:00;22.70;99.90
12268;DHT22;6196;48.398;11.736;2023-06-10T07:09:27;22.80;99.90
12268;DHT22;6196;48.398;11.736;2023-06-10T07:11:54;22.90;99.90
12268;DHT22;6196;48.398;11.736;2023-06-10T07:14:21;23.00;99.90
12268;DHT22;6196;48.398;11.736;2023-06-10T07:16:48;23.10;99.90
12268;DHT22;6196;48.398;11.736;2023-06-10T07:19:16;23.10;99.90
12268;DHT22;6196;48.398;11.736;2023-06-10T07:21:43;23.20;99.90
12268;DHT22;6196;48.398;11.736;2023-06-10T07:24:10;23.30;99.90
12268;DHT22;6196;48.398;11.736;2023-06-10T07:26:37;23.50;99.90
12268;DHT22;6196;48.398;11.736;2023-06-10T07:29:04;23.40;99.90
12268;DHT22;6196;48.398;11.736;2023-06-10T07:31:31;23.50;99.90
12268;DHT22;6196;48.398;11.736;2023-06-10T07:33:58;23.40;99.90
12268;DHT22;6196;48.398;11.736;2023-06-10T07:36:25;23.50;99.90
12268;DHT22;6196;48.398;11.736;2023-06-10T07:38:54;23.50;99.90
12268;DHT22;6196;48.398;11.736;2023-06-10T07:41:23;23.60;99.90
12268;DHT22;6196;48.398;11.736;2023-06-10T07:43:54;23.70;99.90
12268;DHT22;6196;48.398;11.736;2023-06-10T07:46:22;23.40;99.90
12268;DHT22;6196;48.398;11.736;2023-06-10T07:48:50;23.50;99.90
12268;DHT22;6196;48.398;11.736;2023-06-10T07:51:17;23.60;99.90
12268;DHT22;6196;48.398;11.736;2023-06-10T07:53:44;23.50;99.90
12268;DHT22;6196;48.398;11.736;2023-06-10T07:56:11;23.50;99.90
12268;DHT22;6196;48.398;11.736;2023-06-10T07:58:38;22.90;99.90
12268;DHT22;6196;48.398;11.736;2023-06-10T08:01:05;22.90;99.90
12268;DHT22;6196;48.398;11.736;2023-06-10T08:03:33;22.70;99.90
12268;DHT22;6196;48.398;11.736;2023-06-10T08:06:00;22.70;99.90
12268;DHT22;6196;48.398;11.736;2023-06-10T08:08:27;22.90;99.90
12268;DHT22;6196;48.398;11.736;2023-06-10T08:10:54;23.20;99.90
12268;DHT22;6196;48.398;11.736;2023-06-10T08:13:21;23.60;99.90
12268;DHT22;6196;48.398;11.736;2023-06-10T08:15:48;23.50;99.90
12268;DHT22;6196;48.398;11.736;2023-06-10T08:18:17;23.50;99.90
12268;DHT22;6196;48.398;11.736;2023-06-10T08:20:44;23.50;99.90
12268;DHT22;6196;48.398;11.736;2023-06-10T08:23:11;23.60;99.90
12268;DHT22;6196;48.398;11.736;2023-06-10T08:25:38;24.00;99.90
12268;DHT22;6196;48.398;11.736;2023-06-10T08:28:05;24.40;99.90
12268;DHT22;6196;48.398;11.736;2023-06-10T08:30:32;24.60;99.90
12268;DHT22;6196;48.398;11.736;2023-06-10T08:32:59;24.80;99.90
12268;DHT22;6196;48.398;11.736;2023-06-10T08:35:26;25.10;99.90
12268;DHT22;6196;48.398;11.736;2023-06-10T08:37:53;25.40;99.90
12268;DHT22;6196;48.398;11.736;2023-06-10T08:40:20;25.70;99.90
12268;DHT22;6196;48.398;11.736;2023-06-10T08:43:06;25.90;99.90
12268;DHT22;6196;48.398;11.736;2023-06-10T08:45:37;26.00;99.90
12268;DHT22;6196;48.398;11.736;2023-06-10T08:48:05;25.50;99.90
12268;DHT22;6196;48.398;11.736;2023-06-10T08:50:37;24.80;99.90
12268;DHT22;6196;48.398;11.736;2023-06-10T08:53:06;24.60;99.90
12268;DHT22;6196;48.398;11.736;2023-06-10T08:55:38;24.60;99.90
12268;DHT22;6196;48.398;11.736;2023-06-10T08:58:09;24.60;99.90
12268;DHT22;6196;48.398;11.736;2023-06-10T09:00:37;24.40;99.90
12268;DHT22;6196;48.398;11.736;2023-06-10T09:03:05;24.30;99.90
12268;DHT22;6196;48.398;11.736;2023-06-10T09:05:35;24.40;99.90
12268;DHT22;6196;48.398;11.736;2023-06-10T09:08:07;24.80;99.90
12268;DHT22;6196;48.398;11.736;2023-06-10T09:10:36;25.00;99.90
12268;DHT22;6196;48.398;11.736;2023-06-10T09:13:03;24.70;99.90
12268;DHT22;6196;48.398;11.736;2023-06-10T09:15:30;24.70;99.90
12268;DHT22;6196;48.398;11.736;2023-06-10T09:17:57;24.60;99.90
12268;DHT22;6196;48.398;11.736;2023-06-10T09:20:24;24.40;99.90
12268;DHT22;6196;48.398;11.736;2023-06-10T09:22:51;24.70;99.90
12268;DHT22;6196;48.398;11.736;2023-06-10T09:25:18;25.00;99.90
12268;DHT22;6196;48.398;11.736;2023-06-10T09:27:49;25.30;99.90
12268;DHT22;6196;48.398;11.736;2023-06-10T09:30:27;25.10;99.90
12268;DHT22;6196;48.398;11.736;2023-06-10T09:32:59;25.40;99.90
12268;DHT22;6196;48.398;11.736;2023-06-10T09:35:29;25.60;99.90
12268;DHT22;6196;48.398;11.736;2023-06-10T09:37:58;25.50;99.90
12268;DHT22;6196;48.398;11.736;2023-06-10T09:40:27;26.00;99.90
12268;DHT22;6196;48.398;11.736;2023-06-10T09:42:58;26.10;99.90
12268;DHT22;6196;48.398;11.736;2023-06-10T09:45:30;26.40;99.90
12268;DHT22;6196;48.398;11.736;2023-06-10T09:48:01;26.40;99.90
12268;DHT22;6196;48.398;11.736;2023-06-10T09:50:33;26.50;99.90
12268;DHT22;6196;48.398;11.736;2023-06-10T09:53:01;26.30;99.90
12268;DHT22;6196;48.398;11.736;2023-06-10T09:55:33;26.20;99.90
12268;DHT22;6196;48.398;11.736;2023-06-10T09:58:01;26.20;99.90
12268;DHT22;6196;48.398;11.736;2023-06-10T10:00:27;25.60;99.90
12268;DHT22;6196;48.398;11.736;2023-06-10T10:02:54;24.80;99.90
12268;DHT22;6196;48.398;11.736;2023-06-10T10:05:22;25.00;99.90
12268;DHT22;6196;48.398;11.736;2023-06-10T10:07:50;25.00;99.90
12268;DHT22;6196;48.398;11.736;2023-06-10T10:10:19;25.20;99.90
12268;DHT22;6196;48.398;11.736;2023-06-10T10:12:48;25.00;99.90
12268;DHT22;6196;48.398;11.736;2023-06-10T10:15:18;25.10;99.90
12268;DHT22;6196;48.398;11.736;2023-06-10T10:18:07;25.40;99.90
12268;DHT22;6196;48.398;11.736;2023-06-10T10:20:49;25.90;99.90
12268;DHT22;6196;48.398;11.736;2023-06-10T10:23:23;25.70;99.90
12268;DHT22;6196;48.398;11.736;2023-06-10T10:25:54;25.90;99.90
12268;DHT22;6196;48.398;11.736;2023-06-10T10:28:24;25.90;99.90
12268;DHT22;6196;48.398;11.736;2023-06-10T10:30:55;26.10;99.90
12268;DHT22;6196;48.398;11.736;2023-06-10T10:33:36;26.10;99.90
12268;DHT22;6196;48.398;11.736;2023-06-10T10:36:09;26.70;99.90
12268;DHT22;6196;48.398;11.736;2023-06-10T10:38:36;27.30;99.90
12268;DHT22;6196;48.398;11.736;2023-06-10T10:41:05;27.50;99.90
12268;DHT22;6196;48.398;11.736;2023-06-10T10:43:32;27.40;99.90
12268;DHT22;6196;48.398;11.736;2023-06-10T10:46:08;27.50;99.90
12268;DHT22;6196;48.398;11.736;2023-06-10T10:48:39;27.60;99.90
12268;DHT22;6196;48.398;11.736;2023-06-10T10:51:10;27.70;99.90
12268;DHT22;6196;48.398;11.736;2023-06-10T10:53:38;27.30;99.90
12268;DHT22;6196;48.398;11.736;2023-06-10T10:59:04;26.70;99.90
12268;DHT22;6196;48.398;11.736;2023-06-10T11:01:44;27.10;99.90
12268;DHT22;6196;48.398;11.736;2023-06-10T11:04:13;27.20;99.90
12268;DHT22;6196;48.398;11.736;2023-06-10T11:06:52;27.20;99.90
12268;DHT22;6196;48.398;11.736;2023-06-10T11:09:27;27.10;99.90
12268;DHT22;6196;48.398;11.736;2023-06-10T11:11:58;26.60;99.90
12268;DHT22;6196;48.398;11.736;2023-06-10T11:14:27;26.30;99.90
12268;DHT22;6196;48.398;11.736;2023-06-10T11:16:59;26.60;99.90
12268;DHT22;6196;48.398;11.736;2023-06-10T11:19:34;26.50;99.90
12268;DHT22;6196;48.398;11.736;2023-06-10T11:22:04;26.60;99.90
12268;DHT22;6196;48.398;11.736;2023-06-10T11:24:35;26.50;99.90
12268;DHT22;6196;48.398;11.736;2023-06-10T11:30:17;26.30;99.90
12268;DHT22;6196;48.398;11.736;2023-06-10T11:32:50;26.20;99.90
12268;DHT22;6196;48.398;11.736;2023-06-10T11:35:19;26.50;99.90
12268;DHT22;6196;48.398;11.736;2023-06-10T11:37:47;26.80;99.90
12268;DHT22;6196;48.398;11.736;2023-06-10T11:40:15;27.10;99.90
12268;DHT22;6196;48.398;11.736;2023-06-10T11:42:42;27.40;99.90
12268;DHT22;6196;48.398;11.736;2023-06-10T11:45:14;27.80;99.90
12268;DHT22;6196;48.398;11.736;2023-06-10T11:47:56;27.90;99.90
12268;DHT22;6196;48.398;11.736;2023-06-10T11:50:33;27.90;99.90
12268;DHT22;6196;48.398;11.736;2023-06-10T11:53:00;28.10;99.90
12268;DHT22;6196;48.398;11.736;2023-06-10T11:58:19;28.60;99.90
12268;DHT22;6196;48.398;11.736;2023-06-10T12:00:49;28.50;99.90
12268;DHT22;6196;48.398;11.736;2023-06-10T12:03:17;28.80;99.90
12268;DHT22;6196;48.398;11.736;2023-06-10T12:06:04;28.60;99.90
12268;DHT22;6196;48.398;11.736;2023-06-10T12:08:32;28.70;99.90
12268;DHT22;6196;48.398;11.736;2023-06-10T12:11:02;28.10;99.90
12268;DHT22;6196;48.398;11.736;2023-06-10T12:13:29;28.40;99.90
12268;DHT22;6196;48.398;11.736;2023-06-10T12:16:07;28.60;99.90
12268;DHT22;6196;48.398;11.736;2023-06-10T12:18:34;28.80;99.90
12268;DHT22;6196;48.398;11.736;2023-06-10T12:21:01;28.70;99.90
12268;DHT22;6196;48.398;11.736;2023-06-10T12:23:30;27.90;99.90
12268;DHT22;6196;48.398;11.736;2023-06-10T12:25:57;27.30;99.90
12268;DHT22;6196;48.398;11.736;2023-06-10T12:28:27;26.90;99.90
12268;DHT22;6196;48.398;11.736;2023-06-10T12:31:07;26.80;99.90
12268;DHT22;6196;48.398;11.736;2023-06-10T12:33:34;26.40;99.90
12268;DHT22;6196;48.398;11.736;2023-06-10T12:36:01;26.00;99.90
12268;DHT22;6196;48.398;11.736;2023-06-10T12:38:29;25.90;99.90
12268;DHT22;6196;48.398;11.736;2023-06-10T12:41:02;25.60;99.90
12268;DHT22;6196;48.398;11.736;2023-06-10T12:43:31;25.40;99.90
12268;DHT22;6196;48.398;11.736;2023-06-10T12:46:09;25.30;99.90
12268;DHT22;6196;48.398;11.736;2023-06-10T12:48:36;25.40;99.90
12268;DHT22;6196;48.398;11.736;2023-06-10T12:51:15;25.30;99.90
12268;DHT22;6196;48.398;11.736;2023-06-10T12:53:42;25.30;99.90
12268;DHT22;6196;48.398;11.736;2023-06-10T12:56:09;25.30;99.90
12268;DHT22;6196;48.398;11.736;2023-06-10T12:58:37;25.10;99.90
12268;DHT22;6196;48.398;11.736;2023-06-10T13:01:03;25.20;99.90
12268;DHT22;6196;48.398;11.736;2023-06-10T13:03:31;25.10;99.90
12268;DHT22;6196;48.398;11.736;2023-06-10T13:05:58;25.10;99.90
12268;DHT22;6196;48.398;11.736;2023-06-10T13:08:24;25.30;99.90
12268;DHT22;6196;48.398;11.736;2023-06-10T13:10:51;26.00;99.90
12268;DHT22;6196;48.398;11.736;2023-06-10T13:13:19;26.80;99.90
12268;DHT22;6196;48.398;11.736;2023-06-10T13:15:45;27.30;99.90
12268;DHT22;6196;48.398;11.736;2023-06-10T13:18:12;27.60;99.90
12268;DHT22;6196;48.398;11.736;2023-06-10T13:20:39;28.30;99.90
12268;DHT22;6196;48.398;11.736;2023-06-10T13:23:06;28.90;99.90
12268;DHT22;6196;48.398;11.736;2023-06-10T13:25:33;29.40;99.90
12268;DHT22;6196;48.398;11.736;2023-06-10T13:28:00;29.80;99.90
12268;DHT22;6196;48.398;11.736;2023-06-10T13:30:28;29.60;99.90
12268;DHT22;6196;48.398;11.736;2023-06-10T13:32:55;29.20;99.90
12268;DHT22;6196;48.398;11.736;2023-06-10T13:35:22;29.30;99.70
12268;DHT22;6196;48.398;11.736;2023-06-10T13:37:49;29.00;97.80
12268;DHT22;6196;48.398;11.736;2023-06-10T13:40:16;28.50;98.20
12268;DHT22;6196;48.398;11.736;2023-06-10T13:42:43;28.00;98.80
12268;DHT22;6196;48.398;11.736;2023-06-10T13:45:10;27.30;99.90
12268;DHT22;6196;48.398;11.736;2023-06-10T13:47:38;26.90;99.90
12268;DHT22;6196;48.398;11.736;2023-06-10T13:50:06;27.20;99.90
12268;DHT22;6196;48.398;11.736;2023-06-10T13:52:33;27.50;99.90
12268;DHT22;6196;48.398;11.736;2023-06-10T13:55:00;27.70;99.90
12268;DHT22;6196;48.398;11.736;2023-06-10T13:57:27;27.90;99.90
12268;DHT22;6196;48.398;11.736;2023-06-10T13:59:54;28.40;99.90
12268;DHT22;6196;48.398;11.736;2023-06-10T14:02:22;28.70;99.90
12268;DHT22;6196;48.398;11.736;2023-06-10T14:04:49;28.80;99.00
12268;DHT22;6196;48.398;11.736;2023-06-10T14:07:16;29.40;99.40
12268;DHT22;6196;48.398;11.736;2023-06-10T14:09:43;29.80;98.60
12268;DHT22;6196;48.398;11.736;2023-06-10T14:12:10;29.80;99.10
12268;DHT22;6196;48.398;11.736;2023-06-10T14:14:37;30.00;98.00
12268;DHT22;6196;48.398;11.736;2023-06-10T14:17:04;30.00;99.60
12268;DHT22;6196;48.398;11.736;2023-06-10T14:19:32;29.90;99.20
12268;DHT22;6196;48.398;11.736;2023-06-10T14:21:59;29.60;99.90
12268;DHT22;6196;48.398;11.736;2023-06-10T14:24:26;30.10;98.60
12268;DHT22;6196;48.398;11.736;2023-06-10T14:26:53;30.00;99.90
12268;DHT22;6196;48.398;11.736;2023-06-10T14:29:20;29.00;99.90
12268;DHT22;6196;48.398;11.736;2023-06-10T14:31:47;29.30;99.90
12268;DHT22;6196;48.398;11.736;2023-06-10T14:34:14;29.20;99.60
12268;DHT22;6196;48.398;11.736;2023-06-10T14:36:41;28.60;99.10
12268;DHT22;6196;48.398;11.736;2023-06-10T14:39:08;28.50;99.90
12268;DHT22;6196;48.398;11.736;2023-06-10T14:41:35;28.80;98.90
12268;DHT22;6196;48.398;11.736;2023-06-10T14:44:02;28.60;99.90
12268;DHT22;6196;48.398;11.736;2023-06-10T14:46:29;28.60;99.50
12268;DHT22;6196;48.398;11.736;2023-06-10T14:48:56;28.80;98.60
12268;DHT22;6196;48.398;11.736;2023-06-10T14:51:23;29.30;99.10
12268;DHT22;6196;48.398;11.736;2023-06-10T14:53:50;29.80;99.10
12268;DHT22;6196;48.398;11.736;2023-06-10T14:56:17;30.00;97.30
12268;DHT22;6196;48.398;11.736;2023-06-10T14:58:44;30.00;97.00
12268;DHT22;6196;48.398;11.736;2023-06-10T15:01:11;30.00;98.00
12268;DHT22;6196;48.398;11.736;2023-06-10T15:03:38;30.30;98.40
12268;DHT22;6196;48.398;11.736;2023-06-10T15:06:05;29.50;99.90
12268;DHT22;6196;48.398;11.736;2023-06-10T15:08:32;28.50;99.90
12268;DHT22;6196;48.398;11.736;2023-06-10T15:10:58;28.40;99.90
12268;DHT22;6196;48.398;11.736;2023-06-10T15:13:28;28.40;99.70
12268;DHT22;6196;48.398;11.736;2023-06-10T15:15:55;28.00;99.90
12268;DHT22;6196;48.398;11.736;2023-06-10T15:18:22;27.80;99.90
12268;DHT22;6196;48.398;11.736;2023-06-10T15:20:49;27.90;99.80
12268;DHT22;6196;48.398;11.736;2023-06-10T15:23:16;27.80;99.80
12268;DHT22;6196;48.398;11.736;2023-06-10T15:25:43;27.60;99.90
12268;DHT22;6196;48.398;11.736;2023-06-10T15:28:10;27.50;99.80
12268;DHT22;6196;48.398;11.736;2023-06-10T15:30:37;27.40;99.90
12268;DHT22;6196;48.398;11.736;2023-06-10T15:33:04;27.10;99.90
12268;DHT22;6196;48.398;11.736;2023-06-10T15:35:33;27.00;99.90
12268;DHT22;6196;48.398;11.736;2023-06-10T15:38:00;26.90;99.90
12268;DHT22;6196;48.398;11.736;2023-06-10T15:40:27;27.10;99.90
12268;DHT22;6196;48.398;11.736;2023-06-10T15:42:54;27.30;99.90
12268;DHT22;6196;48.398;11.736;2023-06-10T15:45:21;28.10;99.90
12268;DHT22;6196;48.398;11.736;2023-06-10T15:47:48;28.50;99.40
12268;DHT22;6196;48.398;11.736;2023-06-10T15:50:15;28.60;99.60
12268;DHT22;6196;48.398;11.736;2023-06-10T15:52:42;28.40;98.20
12268;DHT22;6196;48.398;11.736;2023-06-10T15:55:09;27.80;98.80